Grand Cane, Louisiana
Current Conditions -  °F | °C
As of 2:56 AM on Saturday 20 Dec 2014 (Local Time) from KSHV Reporting Station
Overcast Overcast  
Wind Chill: 43°   Ceiling: 700
Heat Index: 46°   Visibility: 9mi
Dew Point: 43°   Wind: 6mph
Humidity: 89%   Direction: 70°ENE
Pressure: 30.19"   Gusts: NA
Location:  32.08°N, 93.81°W
Report Text: KSHV 200856Z 07005KT 9SM OVC007 08/06 A3019 RMK AO2 SLP221 T00780061 55001
Loading
Personal Weather Stations






























Interactive Weather Map New forecast layout! Learn more

10-Day Weather Forecast

Advertisements
Track Severe Weather on mobile